sensor_id;sensor_type;location;lat;lon;timestamp;temperature;humidity
44773;DHT22;30492;52.088;5.122;2022-08-21T00:00:05;19.80;99.90
44773;DHT22;30492;52.088;5.122;2022-08-21T00:03:45;19.70;99.90
44773;DHT22;30492;52.088;5.122;2022-08-21T00:10:29;19.70;99.90
44773;DHT22;30492;52.088;5.122;2022-08-21T00:14:16;19.60;99.90
44773;DHT22;30492;52.088;5.122;2022-08-21T00:17:55;19.50;99.90
44773;DHT22;30492;52.088;5.122;2022-08-21T00:21:36;19.50;99.90
44773;DHT22;30492;52.088;5.122;2022-08-21T00:25:16;19.50;99.90
44773;DHT22;30492;52.088;5.122;2022-08-21T00:28:56;19.40;99.90
44773;DHT22;30492;52.088;5.122;2022-08-21T00:32:37;19.40;99.90
44773;DHT22;30492;52.088;5.122;2022-08-21T00:36:17;19.40;99.90
44773;DHT22;30492;52.088;5.122;2022-08-21T00:39:56;19.40;99.90
44773;DHT22;30492;52.088;5.122;2022-08-21T00:43:19;19.30;99.90
44773;DHT22;30492;52.088;5.122;2022-08-21T00:47:00;19.30;99.90
44773;DHT22;30492;52.088;5.122;2022-08-21T00:50:44;19.30;99.90
44773;DHT22;30492;52.088;5.122;2022-08-21T00:54:27;19.30;99.90
44773;DHT22;30492;52.088;5.122;2022-08-21T00:58:08;19.30;99.90
44773;DHT22;30492;52.088;5.122;2022-08-21T01:01:49;19.20;99.90
44773;DHT22;30492;52.088;5.122;2022-08-21T01:05:30;19.20;99.90
44773;DHT22;30492;52.088;5.122;2022-08-21T01:09:08;19.20;99.90
44773;DHT22;30492;52.088;5.122;2022-08-21T01:12:47;19.10;99.90
44773;DHT22;30492;52.088;5.122;2022-08-21T01:16:26;19.10;99.90
44773;DHT22;30492;52.088;5.122;2022-08-21T01:20:08;19.10;99.90
44773;DHT22;30492;52.088;5.122;2022-08-21T01:23:51;19.10;99.90
44773;DHT22;30492;52.088;5.122;2022-08-21T01:27:30;19.00;99.90
44773;DHT22;30492;52.088;5.122;2022-08-21T01:31:10;19.00;99.90
44773;DHT22;30492;52.088;5.122;2022-08-21T01:34:52;19.00;99.90
44773;DHT22;30492;52.088;5.122;2022-08-21T01:38:10;18.90;99.90
44773;DHT22;30492;52.088;5.122;2022-08-21T01:41:51;18.90;99.90
44773;DHT22;30492;52.088;5.122;2022-08-21T01:45:28;18.90;99.90
44773;DHT22;30492;52.088;5.122;2022-08-21T01:49:06;18.80;99.90
44773;DHT22;30492;52.088;5.122;2022-08-21T01:52:47;18.80;99.90
44773;DHT22;30492;52.088;5.122;2022-08-21T01:56:26;18.80;99.90
44773;DHT22;30492;52.088;5.122;2022-08-21T02:00:09;18.80;99.90
44773;DHT22;30492;52.088;5.122;2022-08-21T02:03:50;18.70;99.90
44773;DHT22;30492;52.088;5.122;2022-08-21T02:07:35;18.70;99.90
44773;DHT22;30492;52.088;5.122;2022-08-21T02:11:14;18.70;99.90
44773;DHT22;30492;52.088;5.122;2022-08-21T02:14:54;18.70;99.90
44773;DHT22;30492;52.088;5.122;2022-08-21T02:18:35;18.70;99.90
44773;DHT22;30492;52.088;5.122;2022-08-21T02:22:14;18.60;99.90
44773;DHT22;30492;52.088;5.122;2022-08-21T02:25:52;18.60;99.90
44773;DHT22;30492;52.088;5.122;2022-08-21T02:29:30;18.60;99.90
44773;DHT22;30492;52.088;5.122;2022-08-21T02:33:09;18.60;99.90
44773;DHT22;30492;52.088;5.122;2022-08-21T02:36:50;18.50;99.90
44773;DHT22;30492;52.088;5.122;2022-08-21T02:40:30;18.50;99.90
44773;DHT22;30492;52.088;5.122;2022-08-21T02:44:09;18.40;99.90
44773;DHT22;30492;52.088;5.122;2022-08-21T02:47:49;18.40;99.90
44773;DHT22;30492;52.088;5.122;2022-08-21T02:51:28;18.40;99.90
44773;DHT22;30492;52.088;5.122;2022-08-21T02:55:08;18.40;99.90
44773;DHT22;30492;52.088;5.122;2022-08-21T02:58:49;18.40;99.90
44773;DHT22;30492;52.088;5.122;2022-08-21T03:02:28;18.40;99.90
44773;DHT22;30492;52.088;5.122;2022-08-21T03:06:08;18.30;99.90
44773;DHT22;30492;52.088;5.122;2022-08-21T03:09:47;18.30;99.90
44773;DHT22;30492;52.088;5.122;2022-08-21T03:13:27;18.30;99.90
44773;DHT22;30492;52.088;5.122;2022-08-21T03:17:06;18.20;99.90
44773;DHT22;30492;52.088;5.122;2022-08-21T03:20:46;18.30;99.90
44773;DHT22;30492;52.088;5.122;2022-08-21T03:24:25;18.30;99.90
44773;DHT22;30492;52.088;5.122;2022-08-21T03:28:05;18.30;99.90
44773;DHT22;30492;52.088;5.122;2022-08-21T03:31:45;18.30;99.90
44773;DHT22;30492;52.088;5.122;2022-08-21T03:35:24;18.30;99.90
44773;DHT22;30492;52.088;5.122;2022-08-21T03:39:03;18.20;99.90
44773;DHT22;30492;52.088;5.122;2022-08-21T03:42:42;18.20;99.90
44773;DHT22;30492;52.088;5.122;2022-08-21T03:46:21;18.20;99.90
44773;DHT22;30492;52.088;5.122;2022-08-21T03:49:42;18.20;99.90
44773;DHT22;30492;52.088;5.122;2022-08-21T03:53:20;18.10;99.90
44773;DHT22;30492;52.088;5.122;2022-08-21T03:56:59;18.10;99.90
44773;DHT22;30492;52.088;5.122;2022-08-21T04:00:37;18.10;99.90
44773;DHT22;30492;52.088;5.122;2022-08-21T04:04:15;18.10;99.90
44773;DHT22;30492;52.088;5.122;2022-08-21T04:07:58;18.00;99.90
44773;DHT22;30492;52.088;5.122;2022-08-21T04:11:37;17.90;99.90
44773;DHT22;30492;52.088;5.122;2022-08-21T04:15:15;17.90;99.90
44773;DHT22;30492;52.088;5.122;2022-08-21T04:18:54;17.80;99.90
44773;DHT22;30492;52.088;5.122;2022-08-21T04:22:33;17.80;99.90
44773;DHT22;30492;52.088;5.122;2022-08-21T04:26:14;17.70;99.90
44773;DHT22;30492;52.088;5.122;2022-08-21T04:29:53;17.80;99.90
44773;DHT22;30492;52.088;5.122;2022-08-21T04:33:34;17.70;99.90
44773;DHT22;30492;52.088;5.122;2022-08-21T04:37:12;17.70;99.90
44773;DHT22;30492;52.088;5.122;2022-08-21T04:40:52;17.70;99.90
44773;DHT22;30492;52.088;5.122;2022-08-21T04:44:12;17.70;99.90
44773;DHT22;30492;52.088;5.122;2022-08-21T04:47:53;17.60;99.90
44773;DHT22;30492;52.088;5.122;2022-08-21T04:51:35;17.60;99.90
44773;DHT22;30492;52.088;5.122;2022-08-21T04:55:16;17.70;99.90
44773;DHT22;30492;52.088;5.122;2022-08-21T04:58:59;17.60;99.90
44773;DHT22;30492;52.088;5.122;2022-08-21T05:02:40;17.70;99.90
44773;DHT22;30492;52.088;5.122;2022-08-21T05:06:19;17.70;99.90
44773;DHT22;30492;52.088;5.122;2022-08-21T05:09:59;17.70;99.90
44773;DHT22;30492;52.088;5.122;2022-08-21T05:13:39;17.70;99.90
44773;DHT22;30492;52.088;5.122;2022-08-21T05:17:18;17.70;99.90
44773;DHT22;30492;52.088;5.122;2022-08-21T05:20:58;17.70;99.90
44773;DHT22;30492;52.088;5.122;2022-08-21T05:24:38;17.60;99.90
44773;DHT22;30492;52.088;5.122;2022-08-21T05:28:17;17.70;99.90
44773;DHT22;30492;52.088;5.122;2022-08-21T05:31:56;17.60;99.90
44773;DHT22;30492;52.088;5.122;2022-08-21T05:35:35;17.50;99.90
44773;DHT22;30492;52.088;5.122;2022-08-21T05:39:16;17.50;99.90
44773;DHT22;30492;52.088;5.122;2022-08-21T05:42:56;17.20;99.90
44773;DHT22;30492;52.088;5.122;2022-08-21T05:46:36;17.20;99.90
44773;DHT22;30492;52.088;5.122;2022-08-21T05:49:44;17.20;99.90
44773;DHT22;30492;52.088;5.122;2022-08-21T05:53:23;17.10;99.90
44773;DHT22;30492;52.088;5.122;2022-08-21T05:57:03;17.10;99.90
44773;DHT22;30492;52.088;5.122;2022-08-21T06:00:43;17.10;99.90
44773;DHT22;30492;52.088;5.122;2022-08-21T06:04:22;17.00;99.90
44773;DHT22;30492;52.088;5.122;2022-08-21T06:08:03;17.10;99.90
44773;DHT22;30492;52.088;5.122;2022-08-21T06:11:42;17.10;99.90
44773;DHT22;30492;52.088;5.122;2022-08-21T06:15:03;17.20;99.90
44773;DHT22;30492;52.088;5.122;2022-08-21T06:18:44;17.20;99.90
44773;DHT22;30492;52.088;5.122;2022-08-21T06:22:23;17.20;99.90
44773;DHT22;30492;52.088;5.122;2022-08-21T06:26:06;17.40;99.90
44773;DHT22;30492;52.088;5.122;2022-08-21T06:29:46;17.40;99.90
44773;DHT22;30492;52.088;5.122;2022-08-21T06:33:25;17.50;99.90
44773;DHT22;30492;52.088;5.122;2022-08-21T06:37:04;17.60;99.90
44773;DHT22;30492;52.088;5.122;2022-08-21T06:40:45;17.70;99.90
44773;DHT22;30492;52.088;5.122;2022-08-21T06:44:25;17.70;99.90
44773;DHT22;30492;52.088;5.122;2022-08-21T06:48:09;17.90;99.90
44773;DHT22;30492;52.088;5.122;2022-08-21T06:51:47;18.10;99.90
44773;DHT22;30492;52.088;5.122;2022-08-21T06:55:26;18.30;99.90
44773;DHT22;30492;52.088;5.122;2022-08-21T06:59:04;18.50;99.90
44773;DHT22;30492;52.088;5.122;2022-08-21T07:02:44;18.70;99.90
44773;DHT22;30492;52.088;5.122;2022-08-21T07:06:22;18.70;99.90
44773;DHT22;30492;52.088;5.122;2022-08-21T07:10:01;18.80;99.90
44773;DHT22;30492;52.088;5.122;2022-08-21T07:13:39;19.00;99.90
44773;DHT22;30492;52.088;5.122;2022-08-21T07:17:18;19.20;99.90
44773;DHT22;30492;52.088;5.122;2022-08-21T07:21:00;19.40;99.90
44773;DHT22;30492;52.088;5.122;2022-08-21T07:24:39;19.40;99.90
44773;DHT22;30492;52.088;5.122;2022-08-21T07:28:17;19.50;99.90
44773;DHT22;30492;52.088;5.122;2022-08-21T07:31:56;19.80;99.90
44773;DHT22;30492;52.088;5.122;2022-08-21T07:35:34;20.00;99.90
44773;DHT22;30492;52.088;5.122;2022-08-21T07:39:14;20.10;99.90
44773;DHT22;30492;52.088;5.122;2022-08-21T07:42:53;20.40;99.90
44773;DHT22;30492;52.088;5.122;2022-08-21T07:46:31;20.30;99.90
44773;DHT22;30492;52.088;5.122;2022-08-21T07:50:11;20.30;99.90
44773;DHT22;30492;52.088;5.122;2022-08-21T07:53:51;20.30;99.90
44773;DHT22;30492;52.088;5.122;2022-08-21T07:57:32;20.60;99.90
44773;DHT22;30492;52.088;5.122;2022-08-21T08:01:12;20.90;99.90
44773;DHT22;30492;52.088;5.122;2022-08-21T08:04:51;20.80;99.90
44773;DHT22;30492;52.088;5.122;2022-08-21T08:08:30;20.60;99.90
44773;DHT22;30492;52.088;5.122;2022-08-21T08:12:09;20.50;99.90
44773;DHT22;30492;52.088;5.122;2022-08-21T08:15:50;20.60;99.90
44773;DHT22;30492;52.088;5.122;2022-08-21T08:19:09;20.60;99.90
44773;DHT22;30492;52.088;5.122;2022-08-21T08:22:49;20.80;99.90
44773;DHT22;30492;52.088;5.122;2022-08-21T08:26:28;21.00;99.90
44773;DHT22;30492;52.088;5.122;2022-08-21T08:30:09;21.10;99.90
44773;DHT22;30492;52.088;5.122;2022-08-21T08:33:50;21.10;99.90
44773;DHT22;30492;52.088;5.122;2022-08-21T08:37:30;21.10;99.90
44773;DHT22;30492;52.088;5.122;2022-08-21T08:41:14;21.30;99.90
44773;DHT22;30492;52.088;5.122;2022-08-21T08:44:57;21.50;99.90
44773;DHT22;30492;52.088;5.122;2022-08-21T08:48:44;21.50;99.90
44773;DHT22;30492;52.088;5.122;2022-08-21T08:52:29;21.50;99.90
44773;DHT22;30492;52.088;5.122;2022-08-21T08:56:09;21.60;99.90
44773;DHT22;30492;52.088;5.122;2022-08-21T08:59:38;21.80;99.90
44773;DHT22;30492;52.088;5.122;2022-08-21T09:03:17;22.00;99.90
44773;DHT22;30492;52.088;5.122;2022-08-21T09:07:04;22.20;99.90
44773;DHT22;30492;52.088;5.122;2022-08-21T09:10:57;22.50;99.90
44773;DHT22;30492;52.088;5.122;2022-08-21T09:14:50;22.60;99.90
44773;DHT22;30492;52.088;5.122;2022-08-21T09:18:38;22.80;99.90
44773;DHT22;30492;52.088;5.122;2022-08-21T09:22:28;22.90;99.90
44773;DHT22;30492;52.088;5.122;2022-08-21T09:26:14;23.10;99.90
44773;DHT22;30492;52.088;5.122;2022-08-21T09:29:54;23.30;99.90
44773;DHT22;30492;52.088;5.122;2022-08-21T09:33:33;23.00;99.90
44773;DHT22;30492;52.088;5.122;2022-08-21T09:37:17;23.20;99.90
44773;DHT22;30492;52.088;5.122;2022-08-21T09:40:58;23.10;99.90
44773;DHT22;30492;52.088;5.122;2022-08-21T09:44:40;23.30;99.90
44773;DHT22;30492;52.088;5.122;2022-08-21T09:48:22;23.40;99.90
44773;DHT22;30492;52.088;5.122;2022-08-21T09:52:05;23.20;99.90
44773;DHT22;30492;52.088;5.122;2022-08-21T09:55:53;23.40;99.90
44773;DHT22;30492;52.088;5.122;2022-08-21T09:59:50;23.60;99.90
44773;DHT22;30492;52.088;5.122;2022-08-21T10:03:30;23.70;99.90
44773;DHT22;30492;52.088;5.122;2022-08-21T10:07:12;23.70;99.90
44773;DHT22;30492;52.088;5.122;2022-08-21T10:10:36;23.50;99.90
44773;DHT22;30492;52.088;5.122;2022-08-21T10:14:21;23.60;99.90
44773;DHT22;30492;52.088;5.122;2022-08-21T10:18:10;23.70;99.90
44773;DHT22;30492;52.088;5.122;2022-08-21T10:21:58;23.90;99.90
44773;DHT22;30492;52.088;5.122;2022-08-21T10:25:20;23.70;99.90
44773;DHT22;30492;52.088;5.122;2022-08-21T10:29:07;23.70;99.90
44773;DHT22;30492;52.088;5.122;2022-08-21T10:33:01;23.50;99.90
44773;DHT22;30492;52.088;5.122;2022-08-21T10:36:46;23.70;99.90
44773;DHT22;30492;52.088;5.122;2022-08-21T10:40:28;23.90;99.90
44773;DHT22;30492;52.088;5.122;2022-08-21T10:44:16;24.00;99.90
44773;DHT22;30492;52.088;5.122;2022-08-21T10:48:03;23.70;99.90
44773;DHT22;30492;52.088;5.122;2022-08-21T10:51:49;23.80;99.90
44773;DHT22;30492;52.088;5.122;2022-08-21T10:55:36;24.00;99.90
44773;DHT22;30492;52.088;5.122;2022-08-21T10:59:24;24.30;99.90
44773;DHT22;30492;52.088;5.122;2022-08-21T11:02:49;24.50;99.90
44773;DHT22;30492;52.088;5.122;2022-08-21T11:06:32;24.70;99.90
44773;DHT22;30492;52.088;5.122;2022-08-21T11:10:20;24.90;99.90
44773;DHT22;30492;52.088;5.122;2022-08-21T11:14:04;25.20;99.90
44773;DHT22;30492;52.088;5.122;2022-08-21T11:17:52;25.60;99.90
44773;DHT22;30492;52.088;5.122;2022-08-21T11:21:41;25.90;99.90
44773;DHT22;30492;52.088;5.122;2022-08-21T11:25:27;26.20;99.90
44773;DHT22;30492;52.088;5.122;2022-08-21T11:29:13;26.40;99.90
44773;DHT22;30492;52.088;5.122;2022-08-21T11:33:10;26.70;99.90
44773;DHT22;30492;52.088;5.122;2022-08-21T11:36:59;27.00;99.90
44773;DHT22;30492;52.088;5.122;2022-08-21T11:40:52;27.40;99.90
44773;DHT22;30492;52.088;5.122;2022-08-21T11:44:41;27.80;99.90
44773;DHT22;30492;52.088;5.122;2022-08-21T11:48:10;28.10;99.90
44773;DHT22;30492;52.088;5.122;2022-08-21T11:51:54;28.10;99.90
44773;DHT22;30492;52.088;5.122;2022-08-21T11:55:41;28.10;99.90
44773;DHT22;30492;52.088;5.122;2022-08-21T11:59:26;27.90;99.90
44773;DHT22;30492;52.088;5.122;2022-08-21T12:03:16;27.50;99.90
44773;DHT22;30492;52.088;5.122;2022-08-21T12:06:55;27.50;99.90
44773;DHT22;30492;52.088;5.122;2022-08-21T12:10:37;27.50;99.90
44773;DHT22;30492;52.088;5.122;2022-08-21T12:14:18;27.50;99.70
44773;DHT22;30492;52.088;5.122;2022-08-21T12:18:05;27.60;99.90
44773;DHT22;30492;52.088;5.122;2022-08-21T12:21:51;27.70;99.90
44773;DHT22;30492;52.088;5.122;2022-08-21T12:25:37;27.60;99.90
44773;DHT22;30492;52.088;5.122;2022-08-21T12:29:23;27.50;99.90
44773;DHT22;30492;52.088;5.122;2022-08-21T12:33:05;27.90;99.90
44773;DHT22;30492;52.088;5.122;2022-08-21T12:36:48;27.70;99.90
44773;DHT22;30492;52.088;5.122;2022-08-21T12:40:43;28.20;99.90
44773;DHT22;30492;52.088;5.122;2022-08-21T12:44:24;28.50;99.90
44773;DHT22;30492;52.088;5.122;2022-08-21T12:48:12;28.30;99.90
44773;DHT22;30492;52.088;5.122;2022-08-21T12:51:57;28.30;99.90
44773;DHT22;30492;52.088;5.122;2022-08-21T12:55:41;28.20;99.90
44773;DHT22;30492;52.088;5.122;2022-08-21T12:59:20;28.30;99.90
44773;DHT22;30492;52.088;5.122;2022-08-21T13:02:43;28.10;99.90
44773;DHT22;30492;52.088;5.122;2022-08-21T13:06:29;28.10;99.90
44773;DHT22;30492;52.088;5.122;2022-08-21T13:10:22;28.30;99.60
44773;DHT22;30492;52.088;5.122;2022-08-21T13:14:03;28.60;99.90
44773;DHT22;30492;52.088;5.122;2022-08-21T13:17:47;28.60;98.30
44773;DHT22;30492;52.088;5.122;2022-08-21T13:21:40;28.60;98.50
44773;DHT22;30492;52.088;5.122;2022-08-21T13:25:26;28.80;98.30
44773;DHT22;30492;52.088;5.122;2022-08-21T13:29:07;29.00;99.00
44773;DHT22;30492;52.088;5.122;2022-08-21T13:32:50;28.60;98.00
44773;DHT22;30492;52.088;5.122;2022-08-21T13:36:32;28.30;99.00
44773;DHT22;30492;52.088;5.122;2022-08-21T13:40:17;28.40;99.10
44773;DHT22;30492;52.088;5.122;2022-08-21T13:44:01;28.30;99.30
44773;DHT22;30492;52.088;5.122;2022-08-21T13:47:40;28.00;98.70
44773;DHT22;30492;52.088;5.122;2022-08-21T13:51:20;28.00;99.60
44773;DHT22;30492;52.088;5.122;2022-08-21T13:55:11;27.90;98.70
44773;DHT22;30492;52.088;5.122;2022-08-21T13:58:52;27.90;98.20
44773;DHT22;30492;52.088;5.122;2022-08-21T14:02:38;27.90;98.70
44773;DHT22;30492;52.088;5.122;2022-08-21T14:06:20;27.80;98.40
44773;DHT22;30492;52.088;5.122;2022-08-21T14:10:01;27.60;98.40
44773;DHT22;30492;52.088;5.122;2022-08-21T14:13:43;27.60;98.20
44773;DHT22;30492;52.088;5.122;2022-08-21T14:17:28;27.30;96.20
44773;DHT22;30492;52.088;5.122;2022-08-21T14:21:08;27.00;96.00
44773;DHT22;30492;52.088;5.122;2022-08-21T14:24:48;26.90;96.20
44773;DHT22;30492;52.088;5.122;2022-08-21T14:28:29;26.80;96.20
44773;DHT22;30492;52.088;5.122;2022-08-21T14:32:11;26.70;96.40
44773;DHT22;30492;52.088;5.122;2022-08-21T14:35:53;26.30;97.30
44773;DHT22;30492;52.088;5.122;2022-08-21T14:39:32;26.40;98.10
44773;DHT22;30492;52.088;5.122;2022-08-21T14:43:10;26.20;96.40
44773;DHT22;30492;52.088;5.122;2022-08-21T14:46:48;25.90;97.00
44773;DHT22;30492;52.088;5.122;2022-08-21T14:50:26;25.90;97.90
44773;DHT22;30492;52.088;5.122;2022-08-21T14:54:07;26.00;97.80
44773;DHT22;30492;52.088;5.122;2022-08-21T14:57:48;26.10;98.00
44773;DHT22;30492;52.088;5.122;2022-08-21T15:01:28;26.10;97.50
44773;DHT22;30492;52.088;5.122;2022-08-21T15:05:08;26.10;98.10
44773;DHT22;30492;52.088;5.122;2022-08-21T15:08:46;25.80;97.80
44773;DHT22;30492;52.088;5.122;2022-08-21T15:12:27;25.70;99.00
44773;DHT22;30492;52.088;5.122;2022-08-21T15:16:08;25.40;99.30
44773;DHT22;30492;52.088;5.122;2022-08-21T15:19:48;25.50;99.60
44773;DHT22;30492;52.088;5.122;2022-08-21T15:23:26;25.50;99.20
44773;DHT22;30492;52.088;5.122;2022-08-21T15:27:07;25.70;99.20
44773;DHT22;30492;52.088;5.122;2022-08-21T15:30:49;25.70;99.20
44773;DHT22;30492;52.088;5.122;2022-08-21T15:34:30;25.60;99.00
44773;DHT22;30492;52.088;5.122;2022-08-21T15:38:09;25.30;99.20
44773;DHT22;30492;52.088;5.122;2022-08-21T15:41:48;25.10;99.90
44773;DHT22;30492;52.088;5.122;2022-08-21T15:45:27;25.10;99.90
44773;DHT22;30492;52.088;5.122;2022-08-21T15:49:07;24.80;99.90
44773;DHT22;30492;52.088;5.122;2022-08-21T15:52:46;24.80;99.90
44773;DHT22;30492;52.088;5.122;2022-08-21T15:56:27;24.90;99.90
44773;DHT22;30492;52.088;5.122;2022-08-21T16:00:12;24.70;99.90
44773;DHT22;30492;52.088;5.122;2022-08-21T16:03:52;24.60;99.90
44773;DHT22;30492;52.088;5.122;2022-08-21T16:12:08;24.30;99.90
44773;DHT22;30492;52.088;5.122;2022-08-21T16:15:52;24.60;99.90
44773;DHT22;30492;52.088;5.122;2022-08-21T16:19:32;24.80;99.90
44773;DHT22;30492;52.088;5.122;2022-08-21T16:23:11;24.90;99.90
44773;DHT22;30492;52.088;5.122;2022-08-21T16:26:49;24.90;99.90
44773;DHT22;30492;52.088;5.122;2022-08-21T16:30:11;24.90;99.90
44773;DHT22;30492;52.088;5.122;2022-08-21T16:33:52;25.00;99.90
44773;DHT22;30492;52.088;5.122;2022-08-21T16:37:31;25.00;99.90
44773;DHT22;30492;52.088;5.122;2022-08-21T16:41:12;24.90;99.90
44773;DHT22;30492;52.088;5.122;2022-08-21T16:44:55;25.10;99.90
44773;DHT22;30492;52.088;5.122;2022-08-21T16:48:36;25.20;99.90
44773;DHT22;30492;52.088;5.122;2022-08-21T16:52:15;25.00;99.90
44773;DHT22;30492;52.088;5.122;2022-08-21T16:55:54;24.90;99.90
44773;DHT22;30492;52.088;5.122;2022-08-21T16:59:31;25.00;99.90
44773;DHT22;30492;52.088;5.122;2022-08-21T17:03:14;25.10;99.90
44773;DHT22;30492;52.088;5.122;2022-08-21T17:06:55;24.90;99.90
44773;DHT22;30492;52.088;5.122;2022-08-21T17:10:35;24.90;99.90
44773;DHT22;30492;52.088;5.122;2022-08-21T17:14:16;24.90;99.90
44773;DHT22;30492;52.088;5.122;2022-08-21T17:17:56;24.80;99.90
44773;DHT22;30492;52.088;5.122;2022-08-21T17:21:35;24.40;99.90
44773;DHT22;30492;52.088;5.122;2022-08-21T17:25:16;24.50;99.90
44773;DHT22;30492;52.088;5.122;2022-08-21T17:28:56;24.60;99.90
44773;DHT22;30492;52.088;5.122;2022-08-21T17:32:41;24.60;99.90
44773;DHT22;30492;52.088;5.122;2022-08-21T17:36:22;24.40;99.90
44773;DHT22;30492;52.088;5.122;2022-08-21T17:40:03;24.20;99.90
44773;DHT22;30492;52.088;5.122;2022-08-21T17:43:50;24.20;99.90
44773;DHT22;30492;52.088;5.122;2022-08-21T17:47:30;24.10;99.90
44773;DHT22;30492;52.088;5.122;2022-08-21T17:51:09;24.00;99.90
44773;DHT22;30492;52.088;5.122;2022-08-21T17:54:48;24.10;99.90
44773;DHT22;30492;52.088;5.122;2022-08-21T17:58:27;24.20;99.90
44773;DHT22;30492;52.088;5.122;2022-08-21T18:02:09;24.20;99.90
44773;DHT22;30492;52.088;5.122;2022-08-21T18:05:49;24.10;99.90
44773;DHT22;30492;52.088;5.122;2022-08-21T18:09:29;24.10;99.90
44773;DHT22;30492;52.088;5.122;2022-08-21T18:13:11;24.20;99.90
44773;DHT22;30492;52.088;5.122;2022-08-21T18:16:52;24.20;99.90
44773;DHT22;30492;52.088;5.122;2022-08-21T18:20:32;24.20;99.90
44773;DHT22;30492;52.088;5.122;2022-08-21T18:24:12;24.10;99.90
44773;DHT22;30492;52.088;5.122;2022-08-21T18:27:52;24.20;99.90
44773;DHT22;30492;52.088;5.122;2022-08-21T18:31:31;24.10;99.90
44773;DHT22;30492;52.088;5.122;2022-08-21T18:35:10;24.10;99.90
44773;DHT22;30492;52.088;5.122;2022-08-21T18:38:53;24.00;99.90
44773;DHT22;30492;52.088;5.122;2022-08-21T18:42:35;24.00;99.90
44773;DHT22;30492;52.088;5.122;2022-08-21T18:46:15;23.90;99.90
44773;DHT22;30492;52.088;5.122;2022-08-21T18:49:54;23.90;99.90
44773;DHT22;30492;52.088;5.122;2022-08-21T18:53:33;23.80;99.90
44773;DHT22;30492;52.088;5.122;2022-08-21T18:57:13;23.80;99.90
44773;DHT22;30492;52.088;5.122;2022-08-21T19:00:53;23.70;99.90
44773;DHT22;30492;52.088;5.122;2022-08-21T19:04:32;23.70;99.90
44773;DHT22;30492;52.088;5.122;2022-08-21T19:08:12;23.70;99.90
44773;DHT22;30492;52.088;5.122;2022-08-21T19:11:53;23.70;99.90
44773;DHT22;30492;52.088;5.122;2022-08-21T19:15:38;23.70;99.90
44773;DHT22;30492;52.088;5.122;2022-08-21T19:19:19;23.60;99.90
44773;DHT22;30492;52.088;5.122;2022-08-21T19:22:58;23.60;99.90
44773;DHT22;30492;52.088;5.122;2022-08-21T19:26:37;23.50;99.90
44773;DHT22;30492;52.088;5.122;2022-08-21T19:30:16;23.50;99.90
44773;DHT22;30492;52.088;5.122;2022-08-21T19:33:59;23.50;99.90
44773;DHT22;30492;52.088;5.122;2022-08-21T19:37:39;23.50;99.90
44773;DHT22;30492;52.088;5.122;2022-08-21T19:41:19;23.40;99.90
44773;DHT22;30492;52.088;5.122;2022-08-21T19:45:04;23.40;99.90
44773;DHT22;30492;52.088;5.122;2022-08-21T19:48:44;23.30;99.90
44773;DHT22;30492;52.088;5.122;2022-08-21T19:52:26;23.30;99.90
44773;DHT22;30492;52.088;5.122;2022-08-21T19:56:05;23.30;99.90
44773;DHT22;30492;52.088;5.122;2022-08-21T19:59:47;23.30;99.90
44773;DHT22;30492;52.088;5.122;2022-08-21T20:03:25;23.30;99.90
44773;DHT22;30492;52.088;5.122;2022-08-21T20:07:04;23.20;99.90
44773;DHT22;30492;52.088;5.122;2022-08-21T20:10:44;23.20;99.90
44773;DHT22;30492;52.088;5.122;2022-08-21T20:14:49;23.10;99.90
44773;DHT22;30492;52.088;5.122;2022-08-21T20:18:22;23.10;99.90
44773;DHT22;30492;52.088;5.122;2022-08-21T20:22:01;23.00;99.90
44773;DHT22;30492;52.088;5.122;2022-08-21T20:25:41;23.00;99.90
44773;DHT22;30492;52.088;5.122;2022-08-21T20:29:23;23.00;99.90
44773;DHT22;30492;52.088;5.122;2022-08-21T20:33:02;23.00;99.90
44773;DHT22;30492;52.088;5.122;2022-08-21T20:36:41;23.00;99.90
44773;DHT22;30492;52.088;5.122;2022-08-21T20:40:22;22.90;99.90
44773;DHT22;30492;52.088;5.122;2022-08-21T20:44:03;22.90;99.90
44773;DHT22;30492;52.088;5.122;2022-08-21T20:48:11;22.80;99.90
44773;DHT22;30492;52.088;5.122;2022-08-21T20:51:34;22.80;99.90
44773;DHT22;30492;52.088;5.122;2022-08-21T20:55:18;22.70;99.90
44773;DHT22;30492;52.088;5.122;2022-08-21T20:59:02;22.70;99.90
44773;DHT22;30492;52.088;5.122;2022-08-21T21:02:59;22.70;99.90
44773;DHT22;30492;52.088;5.122;2022-08-21T21:06:40;22.60;99.90
44773;DHT22;30492;52.088;5.122;2022-08-21T21:10:37;22.60;99.90
44773;DHT22;30492;52.088;5.122;2022-08-21T21:14:20;22.50;99.90
44773;DHT22;30492;52.088;5.122;2022-08-21T21:18:06;22.50;99.90
44773;DHT22;30492;52.088;5.122;2022-08-21T21:21:50;22.50;99.90
44773;DHT22;30492;52.088;5.122;2022-08-21T21:25:33;22.40;99.90
44773;DHT22;30492;52.088;5.122;2022-08-21T21:29:19;22.40;99.90
44773;DHT22;30492;52.088;5.122;2022-08-21T21:33:00;22.40;99.90
44773;DHT22;30492;52.088;5.122;2022-08-21T21:36:43;22.40;99.90
44773;DHT22;30492;52.088;5.122;2022-08-21T21:40:34;22.30;99.90
44773;DHT22;30492;52.088;5.122;2022-08-21T21:44:26;22.30;99.90
44773;DHT22;30492;52.088;5.122;2022-08-21T21:48:14;22.20;99.90
44773;DHT22;30492;52.088;5.122;2022-08-21T21:52:03;22.20;99.90
44773;DHT22;30492;52.088;5.122;2022-08-21T21:55:59;22.20;99.90
44773;DHT22;30492;52.088;5.122;2022-08-21T21:59:48;22.10;99.90
44773;DHT22;30492;52.088;5.122;2022-08-21T22:03:44;22.10;99.90
44773;DHT22;30492;52.088;5.122;2022-08-21T22:07:31;22.00;99.90
44773;DHT22;30492;52.088;5.122;2022-08-21T22:10:58;22.00;99.90
44773;DHT22;30492;52.088;5.122;2022-08-21T22:14:40;22.00;99.90
44773;DHT22;30492;52.088;5.122;2022-08-21T22:18:23;21.90;99.90
44773;DHT22;30492;52.088;5.122;2022-08-21T22:22:07;21.90;99.90
44773;DHT22;30492;52.088;5.122;2022-08-21T22:25:49;21.80;99.90
44773;DHT22;30492;52.088;5.122;2022-08-21T22:29:44;21.80;99.90
44773;DHT22;30492;52.088;5.122;2022-08-21T22:33:26;21.80;99.90
44773;DHT22;30492;52.088;5.122;2022-08-21T22:37:10;21.80;99.90
44773;DHT22;30492;52.088;5.122;2022-08-21T22:40:49;21.80;99.90
44773;DHT22;30492;52.088;5.122;2022-08-21T22:44:29;21.70;99.90
44773;DHT22;30492;52.088;5.122;2022-08-21T22:48:09;21.70;99.90
44773;DHT22;30492;52.088;5.122;2022-08-21T22:51:48;21.60;99.90
44773;DHT22;30492;52.088;5.122;2022-08-21T22:55:33;21.60;99.90
44773;DHT22;30492;52.088;5.122;2022-08-21T22:59:22;21.50;99.90
44773;DHT22;30492;52.088;5.122;2022-08-21T23:02:54;21.50;99.90
44773;DHT22;30492;52.088;5.122;2022-08-21T23:06:41;21.50;99.90
44773;DHT22;30492;52.088;5.122;2022-08-21T23:10:25;21.40;99.90
44773;DHT22;30492;52.088;5.122;2022-08-21T23:14:04;21.40;99.90
44773;DHT22;30492;52.088;5.122;2022-08-21T23:17:48;21.40;99.90
44773;DHT22;30492;52.088;5.122;2022-08-21T23:21:36;21.40;99.90